Time;durP1;ratioP1;P1;durP2;ratioP2;P2;SDS_P1;SDS_P2;PMS_P1;PMS_P2;Temp;Humidity;BMP_temperature;BMP_pressure;BME280_temperature;BME280_humidity;BME280_pressure;Samples;Min_cycle;Max_cycle;Signal;HPM_P1;HPM_P2
2022/04/14 00:02:13;;;;;;;1.95;1.07;;;;;;;13.35;50.87;99929.78;1824867;78;20973;-59
2022/04/14 00:04:40;;;;;;;1.10;1.00;;;;;;;13.35;50.86;99923.62;1818463;78;21007;-59
2022/04/14 00:07:06;;;;;;;1.30;1.20;;;;;;;13.35;50.87;99925.77;1793587;78;21123;-60
2022/04/14 00:09:35;;;;;;;1.50;1.30;;;;;;;13.34;50.87;99926.77;1793236;79;20970;-60
2022/04/14 00:12:03;;;;;;;1.10;1.00;;;;;;;13.34;50.86;99928.11;1793282;80;20971;-59
2022/04/14 00:14:31;;;;;;;1.40;1.20;;;;;;;13.35;50.87;99926.28;1793284;80;21069;-59
2022/04/14 00:16:58;;;;;;;2.45;1.20;;;;;;;13.34;50.87;99925.44;1793270;79;21504;-59
2022/04/14 00:19:24;;;;;;;1.32;1.22;;;;;;;13.34;50.88;99925.95;1795310;78;21129;-60
2022/04/14 00:21:53;;;;;;;1.05;1.00;;;;;;;13.34;50.87;99928.62;1824827;78;21041;-60
2022/04/14 00:24:21;;;;;;;1.62;1.10;;;;;;;13.34;50.89;99924.61;1825687;78;21049;-60
2022/04/14 00:26:48;;;;;;;1.27;1.00;;;;;;;13.33;50.88;99925.13;1825815;78;21041;-61
2022/04/14 00:29:14;;;;;;;1.45;1.00;;;;;;;13.34;50.88;99927.28;1825785;78;21037;-61
2022/04/14 00:31:42;;;;;;;1.25;1.15;;;;;;;13.34;50.87;99927.28;1825973;78;21109;-60
2022/04/14 00:34:09;;;;;;;1.17;1.07;;;;;;;13.34;50.89;99933.95;1825674;78;21021;-60
2022/04/14 00:36:36;;;;;;;1.20;1.10;;;;;;;13.33;50.89;99929.12;1825968;78;20986;-61
2022/04/14 00:39:03;;;;;;;1.10;1.00;;;;;;;13.33;50.90;99931.80;1824567;78;21025;-59
2022/04/14 00:41:30;;;;;;;1.20;1.10;;;;;;;13.33;50.90;99931.80;1826017;78;21032;-61
2022/04/14 00:43:58;;;;;;;1.30;1.20;;;;;;;13.33;50.89;99931.80;1825745;78;21037;-61
2022/04/14 00:46:24;;;;;;;1.72;1.45;;;;;;;13.33;50.88;99931.80;1825844;78;20990;-59
2022/04/14 00:48:52;;;;;;;1.45;1.00;;;;;;;13.33;50.87;99934.47;1825899;78;21006;-61
2022/04/14 00:51:18;;;;;;;1.17;1.07;;;;;;;13.33;50.88;99932.31;1825764;78;21056;-59
2022/04/14 00:53:45;;;;;;;1.70;1.40;;;;;;;13.32;50.86;99929.30;1825831;78;21025;-60
2022/04/14 00:56:12;;;;;;;1.47;1.25;;;;;;;13.32;50.89;99935.46;1828989;78;21079;-60
2022/04/14 00:58:40;;;;;;;1.15;1.10;;;;;;;13.33;50.89;99937.65;1831870;77;20978;-60
2022/04/14 01:01:07;;;;;;;1.32;1.10;;;;;;;13.33;50.90;99933.65;1831792;78;21013;-59
2022/04/14 01:03:35;;;;;;;0.93;0.93;;;;;;;13.33;50.89;99941.66;1832065;77;21525;-60
2022/04/14 01:06:03;;;;;;;1.35;1.25;;;;;;;13.32;50.89;99942.13;1831961;77;21096;-59
2022/04/14 01:08:32;;;;;;;1.25;1.15;;;;;;;13.32;50.88;99938.64;1831614;77;21000;-60
2022/04/14 01:11:00;;;;;;;1.20;1.10;;;;;;;13.32;50.87;99942.13;1832053;77;20992;-59
2022/04/14 01:13:28;;;;;;;1.20;1.10;;;;;;;13.33;50.88;99941.66;1821557;78;21029;-60
2022/04/14 01:15:59;;;;;;;1.10;0.98;;;;;;;13.32;50.88;99934.64;1799227;79;20978;-60
2022/04/14 01:18:27;;;;;;;1.30;1.17;;;;;;;13.31;50.86;99933.00;1799606;79;21025;-60
2022/04/14 01:20:56;;;;;;;0.90;0.90;;;;;;;13.31;50.88;99927.15;1799394;79;22376;-59
2022/04/14 01:23:38;;;;;;;1.77;1.35;;;;;;;13.31;50.89;99928.48;1799318;79;21052;-59
2022/04/14 01:26:05;;;;;;;1.27;1.17;;;;;;;13.30;50.89;99932.66;1798364;79;22046;-61
2022/04/14 01:28:31;;;;;;;1.20;1.10;;;;;;;13.31;50.88;99929.00;1799121;79;21076;-59
2022/04/14 01:30:58;;;;;;;1.62;1.47;;;;;;;13.31;50.90;99925.81;1800311;78;21064;-60
2022/04/14 01:33:24;;;;;;;1.15;1.10;;;;;;;13.31;50.89;99926.33;1799180;79;21182;-60
2022/04/14 01:35:51;;;;;;;1.20;1.10;;;;;;;13.30;50.89;99922.81;1799279;79;21053;-59
2022/04/14 01:38:18;;;;;;;1.30;1.12;;;;;;;13.31;50.89;99927.66;1799098;79;21041;-60
2022/04/14 01:40:45;;;;;;;1.00;1.00;;;;;;;13.31;50.90;99923.66;1799274;79;20994;-60
2022/04/14 01:43:13;;;;;;;1.35;1.10;;;;;;;13.31;50.89;99920.99;1799257;79;21037;-60
2022/04/14 01:45:40;;;;;;;1.42;1.10;;;;;;;13.30;50.89;99920.14;1799216;79;21178;-59
2022/04/14 01:48:08;;;;;;;1.20;1.10;;;;;;;13.30;50.89;99929.48;1800140;78;21021;-59
2022/04/14 01:50:35;;;;;;;1.35;1.10;;;;;;;13.30;50.87;99924.66;1799262;79;21080;-59
2022/04/14 01:53:01;;;;;;;1.35;1.10;;;;;;;13.30;50.87;99932.15;1799249;78;21545;-60
2022/04/14 01:55:29;;;;;;;1.20;1.10;;;;;;;13.30;50.89;99944.16;1799169;79;21018;-60
2022/04/14 01:57:57;;;;;;;1.20;1.10;;;;;;;13.29;50.86;99945.15;1799204;79;21045;-60
2022/04/14 02:00:25;;;;;;;1.10;1.00;;;;;;;13.30;50.87;99946.00;1825975;78;20993;-61
2022/04/14 02:02:52;;;;;;;1.05;1.05;;;;;;;13.30;50.87;99954.01;1831904;78;20986;-61
2022/04/14 02:05:19;;;;;;;0.90;0.90;;;;;;;13.30;50.86;99962.83;1830924;78;21048;-60
2022/04/14 02:07:47;;;;;;;1.20;1.10;;;;;;;13.30;50.85;99966.83;1831934;77;20982;-59
2022/04/14 02:10:14;;;;;;;1.20;1.10;;;;;;;13.30;50.85;99968.16;1831916;78;21848;-60
2022/04/14 02:12:45;;;;;;;1.12;1.02;;;;;;;13.29;50.84;99964.31;1831902;77;21482;-60
2022/04/14 02:15:12;;;;;;;1.10;1.00;;;;;;;13.30;50.85;99963.34;1831801;77;21465;-60
2022/04/14 02:17:41;;;;;;;1.22;1.10;;;;;;;13.29;50.85;99960.30;1831809;78;20974;-60
2022/04/14 02:20:10;;;;;;;1.47;1.02;;;;;;;13.28;50.84;99964.82;1831834;78;21556;-61
2022/04/14 02:22:40;;;;;;;0.93;0.90;;;;;;;13.29;50.85;99965.64;1805522;77;21001;-60
2022/04/14 02:25:09;;;;;;;1.10;1.00;;;;;;;13.28;50.84;99962.67;1798953;79;21009;-59
2022/04/14 02:27:37;;;;;;;1.20;0.95;;;;;;;13.27;50.85;99960.52;1799432;79;21045;-60
2022/04/14 02:30:06;;;;;;;1.15;1.05;;;;;;;13.27;50.85;99969.84;1799075;79;20985;-61
2022/04/14 02:32:32;;;;;;;0.90;0.88;;;;;;;13.27;50.83;99973.85;1799076;79;20986;-60
2022/04/14 02:35:02;;;;;;;1.00;1.00;;;;;;;13.27;50.86;99966.33;1799102;79;20978;-61
2022/04/14 02:37:28;;;;;;;1.30;1.07;;;;;;;13.27;50.83;99974.33;1799088;79;20989;-60
2022/04/14 02:39:55;;;;;;;1.82;1.17;;;;;;;13.27;50.85;99969.00;1800311;78;21033;-59
2022/04/14 02:42:21;;;;;;;1.00;1.00;;;;;;;13.26;50.85;99972.17;1798973;79;21064;-60
2022/04/14 02:44:48;;;;;;;1.02;0.93;;;;;;;13.26;50.83;99972.69;1799240;79;21013;-60
2022/04/14 02:47:15;;;;;;;1.32;1.22;;;;;;;13.26;50.83;99970.02;1799075;79;21168;-60
2022/04/14 02:49:43;;;;;;;1.40;1.10;;;;;;;13.25;50.82;99978.54;1799043;79;21064;-60
2022/04/14 02:52:09;;;;;;;1.32;1.02;;;;;;;13.27;50.83;99978.33;1798998;79;21053;-60
2022/04/14 02:54:37;;;;;;;1.42;1.00;;;;;;;13.26;50.82;99976.69;1799497;78;21037;-60
2022/04/14 02:57:08;;;;;;;1.10;1.00;;;;;;;13.26;50.82;99978.03;1795031;78;21057;-60
2022/04/14 02:59:40;;;;;;;1.10;1.02;;;;;;;13.26;50.85;99984.70;1808848;78;21052;-60
2022/04/14 03:02:04;;;;;;;0.90;0.90;;;;;;;13.25;50.82;99976.35;1824543;78;21527;-60
2022/04/14 03:04:32;;;;;;;0.82;0.80;;;;;;;13.25;50.82;99975.02;1825711;78;20966;-60
2022/04/14 03:06:59;;;;;;;1.42;1.10;;;;;;;13.25;50.83;99984.36;1825595;78;21026;-60
2022/04/14 03:09:27;;;;;;;1.25;0.95;;;;;;;13.24;50.81;99979.53;1825763;78;21024;-60
2022/04/14 03:11:54;;;;;;;0.98;0.98;;;;;;;13.24;50.82;99983.53;1824833;78;21285;-60
2022/04/14 03:14:20;;;;;;;1.07;0.98;;;;;;;13.25;50.83;99983.02;1825517;78;20982;-60
2022/04/14 03:16:47;;;;;;;0.93;0.90;;;;;;;13.25;50.83;99987.02;1826038;78;21061;-60
2022/04/14 03:19:15;;;;;;;1.32;1.22;;;;;;;13.25;50.81;99989.21;1825759;78;21569;-60
2022/04/14 03:21:42;;;;;;;1.20;1.10;;;;;;;13.25;50.82;99991.88;1818578;78;21073;-61
2022/04/14 03:24:08;;;;;;;1.55;1.10;;;;;;;13.24;50.82;99990.72;1825899;78;21122;-59
2022/04/14 03:26:36;;;;;;;1.27;1.10;;;;;;;13.24;50.82;99990.20;1825792;78;20998;-60
2022/04/14 03:29:02;;;;;;;1.20;1.00;;;;;;;13.24;50.82;99998.21;1821202;78;21013;-62
2022/04/14 03:31:28;;;;;;;0.78;0.78;;;;;;;13.24;50.82;99997.39;1793421;79;20998;-59
2022/04/14 03:33:57;;;;;;;1.17;1.07;;;;;;;13.24;50.81;99984.87;1793382;79;20986;-60
2022/04/14 03:36:25;;;;;;;1.20;1.10;;;;;;;13.24;50.82;99992.87;1793544;79;20966;-60
2022/04/14 03:38:51;;;;;;;1.17;1.05;;;;;;;13.24;50.81;99998.21;1793333;80;21493;-61
2022/04/14 03:41:18;;;;;;;2.90;1.25;;;;;;;13.24;50.83;100000.88;1793309;79;21016;-59
2022/04/14 03:43:46;;;;;;;1.20;1.10;;;;;;;13.25;50.82;99992.36;1793394;79;21029;-61
2022/04/14 03:46:15;;;;;;;1.17;1.02;;;;;;;13.25;50.81;99999.03;1794360;78;21057;-59
2022/04/14 03:48:46;;;;;;;0.85;0.85;;;;;;;13.24;50.79;100002.20;1793550;80;21136;-60
2022/04/14 03:51:10;;;;;;;1.00;0.93;;;;;;;13.25;50.82;100005.22;1792192;79;21057;-60
2022/04/14 03:53:36;;;;;;;0.90;0.90;;;;;;;13.24;50.80;100002.20;1793407;78;21478;-60
2022/04/14 03:56:04;;;;;;;0.80;0.80;;;;;;;13.24;50.82;100006.21;1795041;78;21001;-60
2022/04/14 03:58:30;;;;;;;0.90;0.90;;;;;;;13.24;50.81;100002.20;1800127;78;20998;-60
2022/04/14 04:00:57;;;;;;;1.60;0.88;;;;;;;13.25;50.82;100012.37;1831933;78;21124;-59
2022/04/14 04:03:23;;;;;;;0.80;0.80;;;;;;;13.24;50.81;100014.22;1831007;78;21048;-60
2022/04/14 04:05:50;;;;;;;1.02;0.95;;;;;;;13.25;50.80;100013.70;1832005;78;20997;-60
2022/04/14 04:08:18;;;;;;;1.02;0.93;;;;;;;13.25;50.83;100011.89;1831917;77;21025;-63
2022/04/14 04:10:45;;;;;;;0.82;0.80;;;;;;;13.25;50.83;100019.04;1832331;78;21056;-60
2022/04/14 04:13:11;;;;;;;0.93;0.90;;;;;;;13.26;50.82;100016.71;1832030;77;21121;-60
2022/04/14 04:15:40;;;;;;;1.10;0.93;;;;;;;13.26;50.85;100023.37;1831895;77;21052;-60
2022/04/14 04:18:08;;;;;;;0.98;0.98;;;;;;;13.26;50.82;100017.53;1832279;77;21285;-60
2022/04/14 04:20:34;;;;;;;0.80;0.80;;;;;;;13.26;50.82;100020.20;1830677;78;20958;-61
2022/04/14 04:23:05;;;;;;;1.47;1.10;;;;;;;13.27;50.81;100023.20;1831866;78;21138;-60
2022/04/14 04:25:32;;;;;;;0.95;0.75;;;;;;;13.26;50.80;100020.20;1831936;78;21191;-60
2022/04/14 04:27:59;;;;;;;0.70;0.70;;;;;;;13.25;50.82;100011.89;1831788;78;20993;-59
2022/04/14 04:30:25;;;;;;;0.90;0.90;;;;;;;13.27;50.83;100018.36;1831975;78;21021;-61
2022/04/14 04:32:53;;;;;;;1.17;1.00;;;;;;;13.27;50.82;100021.88;1831940;78;21032;-59
2022/04/14 04:35:20;;;;;;;1.00;1.00;;;;;;;13.27;50.81;100023.69;1831811;78;20986;-60
2022/04/14 04:37:48;;;;;;;1.00;0.93;;;;;;;13.28;50.81;100028.03;1816701;78;21164;-59
2022/04/14 04:40:18;;;;;;;0.95;0.90;;;;;;;13.28;50.82;100030.70;1799367;79;21062;-60
2022/04/14 04:42:45;;;;;;;1.07;0.95;;;;;;;13.28;50.79;100036.04;1799394;79;21013;-60
2022/04/14 04:45:11;;;;;;;0.80;0.80;;;;;;;13.28;50.81;100038.70;1799448;79;21080;-60
2022/04/14 04:47:38;;;;;;;1.12;1.02;;;;;;;13.28;50.81;100040.03;1799287;79;21580;-60
2022/04/14 04:50:07;;;;;;;1.10;1.00;;;;;;;13.28;50.81;100030.70;1799121;79;21172;-61
2022/04/14 04:52:35;;;;;;;1.22;1.00;;;;;;;13.28;50.80;100038.19;1799140;78;21021;-61
2022/04/14 04:55:02;;;;;;;1.00;1.00;;;;;;;13.29;50.80;100035.01;1800174;78;20974;-61
2022/04/14 04:57:28;;;;;;;1.10;1.00;;;;;;;13.30;50.79;100031.38;1794766;78;21053;-60
2022/04/14 04:59:55;;;;;;;1.00;0.90;;;;;;;13.30;50.80;100040.72;1813228;78;21442;-60
2022/04/14 05:02:21;;;;;;;1.07;1.00;;;;;;;13.30;50.80;100045.55;1825768;78;21068;-61
2022/04/14 05:04:48;;;;;;;0.80;0.80;;;;;;;13.31;50.79;100043.73;1825686;78;21065;-60
2022/04/14 05:07:16;;;;;;;0.93;0.93;;;;;;;13.31;50.79;100048.55;1825764;78;21053;-60
2022/04/14 05:09:43;;;;;;;0.90;0.90;;;;;;;13.32;50.81;100052.05;1825775;78;20978;-60
2022/04/14 05:12:11;;;;;;;0.90;0.80;;;;;;;13.33;50.79;100051.05;1824767;78;21034;-60
2022/04/14 05:14:37;;;;;;;1.77;1.00;;;;;;;13.33;50.77;100058.55;1825722;78;21128;-61
2022/04/14 05:17:05;;;;;;;1.27;1.00;;;;;;;13.33;50.80;100057.20;1826000;78;20970;-60
2022/04/14 05:19:33;;;;;;;1.00;0.90;;;;;;;13.34;50.75;100054.84;1825870;78;21049;-60
2022/04/14 05:22:01;;;;;;;0.85;0.80;;;;;;;13.34;50.75;100065.52;1825871;78;21535;-60
2022/04/14 05:24:31;;;;;;;1.02;1.00;;;;;;;13.34;50.74;100063.36;1825876;78;21001;-60
2022/04/14 05:26:59;;;;;;;1.17;1.00;;;;;;;13.35;50.76;100057.03;1825759;78;21041;-60
2022/04/14 05:29:25;;;;;;;0.80;0.80;;;;;;;13.37;50.74;100071.03;1824774;78;21501;-59
2022/04/14 05:31:53;;;;;;;0.90;0.90;;;;;;;13.37;50.75;100069.69;1818232;78;20997;-60
2022/04/14 05:34:20;;;;;;;0.90;0.90;;;;;;;13.38;50.73;100068.66;1825766;78;21474;-61
2022/04/14 05:36:47;;;;;;;1.10;1.00;;;;;;;13.39;50.73;100078.34;1825734;78;21004;-60
2022/04/14 05:39:14;;;;;;;0.98;0.98;;;;;;;13.41;50.72;100072.84;1825748;78;21129;-60
2022/04/14 05:41:40;;;;;;;1.27;1.10;;;;;;;13.41;50.72;100070.17;1826094;78;21033;-61
2022/04/14 05:44:07;;;;;;;1.02;0.90;;;;;;;13.42;50.71;100075.81;1825788;78;21052;-61
2022/04/14 05:46:33;;;;;;;1.07;0.90;;;;;;;13.43;50.72;100070.81;1800653;78;21017;-61
2022/04/14 05:49:00;;;;;;;1.17;1.07;;;;;;;13.43;50.73;100076.98;1793205;79;21127;-60
2022/04/14 05:51:26;;;;;;;0.88;0.82;;;;;;;13.45;50.70;100078.14;1793509;80;21235;-60
2022/04/14 05:53:53;;;;;;;1.15;1.05;;;;;;;13.46;50.73;100083.78;1793245;79;21438;-60
2022/04/14 05:56:24;;;;;;;0.88;0.88;;;;;;;13.47;50.71;100081.46;1793156;79;21021;-60
2022/04/14 05:58:54;;;;;;;0.80;0.80;;;;;;;13.47;50.71;100082.28;1798972;78;21009;-59
2022/04/14 06:01:20;;;;;;;1.15;1.05;;;;;;;13.48;50.69;100077.28;1825709;78;21053;-61
2022/04/14 06:03:48;;;;;;;0.98;0.98;;;;;;;13.49;50.70;100076.77;1824732;78;21489;-59
2022/04/14 06:06:15;;;;;;;1.05;0.90;;;;;;;13.50;50.70;100078.41;1825540;78;20985;-60
2022/04/14 06:08:43;;;;;;;1.37;1.00;;;;;;;13.51;50.70;100080.09;1825714;78;21082;-60
2022/04/14 06:11:11;;;;;;;1.05;0.95;;;;;;;13.52;50.70;100086.59;1825630;78;21025;-59
2022/04/14 06:13:38;;;;;;;1.00;0.90;;;;;;;13.53;50.68;100084.74;1825800;78;21033;-60
2022/04/14 06:16:05;;;;;;;1.10;1.00;;;;;;;13.53;50.71;100088.75;1825571;78;21108;-60
2022/04/14 06:18:33;;;;;;;1.30;1.20;;;;;;;13.55;50.67;100094.73;1825739;78;21017;-61
2022/04/14 06:20:59;;;;;;;1.10;1.00;;;;;;;13.55;50.68;100092.89;1824552;78;21009;-59
2022/04/14 06:23:26;;;;;;;1.12;1.00;;;;;;;13.56;50.67;100089.22;1825723;78;20990;-60
2022/04/14 06:25:54;;;;;;;0.80;0.80;;;;;;;13.57;50.68;100082.86;1825694;78;21006;-61
2022/04/14 06:28:22;;;;;;;1.10;1.00;;;;;;;13.59;50.69;100088.02;1825769;78;20963;-61
2022/04/14 06:30:51;;;;;;;0.93;0.88;;;;;;;13.60;50.67;100089.70;1825848;78;21037;-62
2022/04/14 06:33:18;;;;;;;1.05;0.90;;;;;;;13.61;50.69;100089.19;1825830;78;21064;-60
2022/04/14 06:35:45;;;;;;;0.90;0.90;;;;;;;13.62;50.69;100090.83;1824333;78;20998;-60
2022/04/14 06:38:12;;;;;;;1.20;1.10;;;;;;;13.63;50.68;100097.84;1809408;77;21524;-60
2022/04/14 06:40:40;;;;;;;1.02;1.00;;;;;;;13.66;50.67;100100.17;1825977;78;21009;-60
2022/04/14 06:43:06;;;;;;;1.05;1.02;;;;;;;13.66;50.65;100100.98;1825959;78;20979;-60
2022/04/14 06:45:33;;;;;;;1.05;0.95;;;;;;;13.67;50.64;100098.63;1825767;78;21045;-60
2022/04/14 06:48:01;;;;;;;2.45;1.17;;;;;;;13.69;50.64;100095.27;1825710;78;21038;-60
2022/04/14 06:50:29;;;;;;;1.12;0.90;;;;;;;13.71;50.63;100098.63;1825764;78;21014;-60
2022/04/14 06:52:56;;;;;;;1.30;1.00;;;;;;;13.72;50.62;100098.93;1822829;78;21119;-60
2022/04/14 06:55:22;;;;;;;1.12;0.90;;;;;;;13.74;50.61;100100.91;1793175;79;21091;-61
2022/04/14 06:57:50;;;;;;;1.00;0.90;;;;;;;13.77;50.61;100098.37;1793417;78;20997;-60
2022/04/14 07:00:17;;;;;;;1.00;0.90;;;;;;;13.77;50.60;100099.71;1817958;78;21041;-61
2022/04/14 07:02:53;;;;;;;1.20;1.00;;;;;;;13.80;50.59;100101.22;1825826;78;21017;-61
2022/04/14 07:05:21;;;;;;;1.77;1.00;;;;;;;13.81;50.62;100097.03;1825664;78;21129;-61
2022/04/14 07:07:49;;;;;;;1.20;1.10;;;;;;;13.83;50.61;100097.69;1825643;78;21536;-61
2022/04/14 07:12:07;;;;;;;0.93;0.90;;;;;;;13.91;50.58;100100.27;1854834;76;27997;-61
2022/04/14 07:14:34;;;;;;;1.20;0.90;;;;;;;13.89;50.57;100104.97;1826543;78;20976;-60
2022/04/14 07:17:01;;;;;;;0.90;0.90;;;;;;;13.92;50.57;100111.27;1826494;78;21977;-60
2022/04/14 07:19:28;;;;;;;1.10;1.00;;;;;;;13.94;50.52;100105.75;1826527;78;20940;-60
2022/04/14 07:21:55;;;;;;;1.40;1.12;;;;;;;13.96;50.51;100109.92;1826461;78;20917;-60
2022/04/14 07:24:22;;;;;;;1.77;1.02;;;;;;;13.99;50.50;100106.05;1826397;78;20961;-60
2022/04/14 07:26:49;;;;;;;1.00;1.00;;;;;;;14.01;50.45;100104.02;1827541;77;20893;-60
2022/04/14 07:29:15;;;;;;;0.82;0.82;;;;;;;14.03;50.46;100106.00;1857792;77;21078;-61
2022/04/14 07:31:42;;;;;;;1.05;1.00;;;;;;;14.06;50.40;100100.79;1857792;77;20993;-62
2022/04/14 07:34:10;;;;;;;1.22;1.12;;;;;;;14.07;50.40;100102.47;1857790;77;20878;-61
2022/04/14 07:36:37;;;;;;;1.20;1.00;;;;;;;14.08;50.40;100100.95;1857729;77;20982;-60
2022/04/14 07:39:04;;;;;;;1.17;1.07;;;;;;;14.10;50.38;100103.42;1857982;77;21005;-61
2022/04/14 07:41:31;;;;;;;1.17;1.07;;;;;;;14.12;50.37;100102.24;1850456;77;21078;-61
2022/04/14 07:43:58;;;;;;;1.00;1.00;;;;;;;14.14;50.33;100106.89;1829767;77;21041;-60
2022/04/14 07:46:25;;;;;;;0.90;0.90;;;;;;;14.15;50.33;100100.53;1857784;77;21611;-64
2022/04/14 07:48:53;;;;;;;1.05;1.00;;;;;;;14.18;50.33;100109.19;1857738;77;21032;-60
2022/04/14 07:51:19;;;;;;;1.00;1.00;;;;;;;14.20;50.34;100101.33;1857759;77;21029;-60
2022/04/14 07:53:48;;;;;;;1.20;1.10;;;;;;;14.22;50.35;100107.84;1857828;77;20988;-61
2022/04/14 07:56:15;;;;;;;1.17;1.00;;;;;;;14.23;50.32;100108.97;1857664;77;20974;-61
2022/04/14 07:58:43;;;;;;;0.88;0.88;;;;;;;14.25;50.32;100106.94;1857962;77;20994;-60
2022/04/14 08:01:10;;;;;;;1.20;1.10;;;;;;;14.28;50.34;100108.44;1851365;77;21494;-61
2022/04/14 08:03:38;;;;;;;1.00;1.00;;;;;;;14.30;50.33;100105.07;1814749;79;21050;-60
2022/04/14 08:06:05;;;;;;;1.32;1.05;;;;;;;14.31;50.34;100102.22;1814627;79;21735;-60
2022/04/14 08:08:33;;;;;;;1.15;1.05;;;;;;;14.33;50.34;100104.69;1814565;78;21010;-60
2022/04/14 08:11:03;;;;;;;0.90;0.90;;;;;;;14.34;50.32;100104.51;1812655;78;21037;-61
2022/04/14 08:13:30;;;;;;;1.40;1.30;;;;;;;14.37;50.31;100104.67;1809544;78;21537;-61
2022/04/14 08:16:01;;;;;;;1.00;1.00;;;;;;;14.38;50.31;100101.48;1809558;78;20983;-61
2022/04/14 08:18:28;;;;;;;1.10;1.00;;;;;;;14.39;50.30;100105.31;1811178;77;21145;-60
2022/04/14 08:20:57;;;;;;;1.07;0.98;;;;;;;14.40;50.29;100098.94;1809467;79;21539;-60
2022/04/14 08:23:24;;;;;;;1.12;1.00;;;;;;;14.42;50.29;100101.43;1808907;79;21089;-60
2022/04/14 08:25:50;;;;;;;1.10;1.00;;;;;;;14.44;50.30;100099.41;1808975;79;20987;-60
2022/04/14 08:28:17;;;;;;;1.20;1.10;;;;;;;14.45;50.27;100103.75;1808941;78;21088;-60
2022/04/14 08:30:44;;;;;;;1.30;1.20;;;;;;;14.48;50.27;100099.34;1808883;79;21129;-60
2022/04/14 08:33:12;;;;;;;1.00;0.90;;;;;;;14.49;50.28;100103.19;1808764;79;20990;-59
2022/04/14 08:35:39;;;;;;;1.00;1.00;;;;;;;14.51;50.29;100104.34;1810815;77;21057;-60
2022/04/14 08:38:07;;;;;;;1.15;1.05;;;;;;;14.53;50.26;100099.12;1808871;79;21073;-61
2022/04/14 08:40:36;;;;;;;1.20;1.10;;;;;;;14.55;50.29;100104.29;1833954;77;21014;-60
2022/04/14 08:43:06;;;;;;;1.70;1.10;;;;;;;14.58;50.33;100104.45;1816178;79;21443;-61
2022/04/14 08:45:47;;;;;;;1.40;1.02;;;;;;;14.60;50.28;100100.56;1816462;79;21045;-60
2022/04/14 08:48:15;;;;;;;1.20;1.10;;;;;;;14.62;50.30;100097.70;1825825;75;21017;-61
2022/04/14 08:50:43;;;;;;;1.52;1.05;;;;;;;14.64;50.30;100101.87;1820376;78;21494;-60
2022/04/14 08:53:10;;;;;;;1.10;1.00;;;;;;;14.66;50.26;100101.67;1840554;77;20994;-62
2022/04/14 08:55:41;;;;;;;2.45;1.00;;;;;;;14.68;50.27;100104.98;1853788;77;21135;-61
2022/04/14 08:58:13;;;;;;;1.10;1.00;;;;;;;14.70;50.24;100100.31;1853930;77;21068;-60
2022/04/14 09:00:40;;;;;;;1.22;1.12;;;;;;;14.73;50.23;100103.93;1854202;77;21009;-60
2022/04/14 09:03:07;;;;;;;1.30;1.10;;;;;;;14.75;50.24;100101.37;1853815;77;22036;-60
2022/04/14 09:05:34;;;;;;;1.17;1.07;;;;;;;14.78;50.19;100098.04;1853868;77;21026;-60
2022/04/14 09:08:03;;;;;;;1.35;1.02;;;;;;;14.81;50.17;100098.98;1853786;77;20976;-60
2022/04/14 09:10:30;;;;;;;1.00;0.90;;;;;;;14.84;50.12;100083.91;1854243;77;21001;-60
2022/04/14 09:12:56;;;;;;;1.00;0.90;;;;;;;14.86;50.07;100088.05;1853894;77;21021;-61
2022/04/14 09:15:23;;;;;;;1.22;1.00;;;;;;;14.90;50.00;100092.52;1853892;77;20993;-61
2022/04/14 09:17:50;;;;;;;1.62;1.52;;;;;;;14.94;49.93;100089.78;1853797;77;20990;-60
2022/04/14 09:20:36;;;;;;;1.70;1.40;;;;;;;14.98;49.89;100090.24;1853816;77;21270;-61
2022/04/14 09:23:26;;;;;;;1.10;1.00;;;;;;;15.01;49.83;100089.84;1853601;77;21022;-60
2022/04/14 09:26:06;;;;;;;1.30;1.20;;;;;;;15.05;49.82;100088.48;1851395;77;21458;-61
2022/04/14 09:28:34;;;;;;;1.22;1.12;;;;;;;15.09;49.96;100088.41;1839847;77;21045;-60
2022/04/14 09:31:05;;;;;;;1.55;1.10;;;;;;;15.12;50.18;100082.19;1840064;78;21045;-61
2022/04/14 09:33:46;;;;;;;2.42;1.65;;;;;;;15.17;50.60;100087.47;1839868;77;21292;-61
2022/04/14 09:36:19;;;;;;;1.20;1.10;;;;;;;15.20;50.92;100086.59;1839700;78;21069;-60
2022/04/14 09:38:59;;;;;;;1.40;1.30;;;;;;;15.26;51.25;100091.66;1840110;78;20994;-60
2022/04/14 09:41:41;;;;;;;1.10;0.90;;;;;;;15.30;51.36;100093.78;1847290;77;20982;-61
2022/04/14 09:44:11;;;;;;;1.02;1.02;;;;;;;15.35;51.53;100083.83;1847308;77;21571;-61
2022/04/14 09:46:45;;;;;;;1.00;1.00;;;;;;;15.42;51.69;100086.59;1847826;77;21134;-61
2022/04/14 09:49:14;;;;;;;1.80;1.22;;;;;;;15.46;51.69;100094.04;1847804;77;21011;-61
2022/04/14 09:54:28;;;;;;;1.10;1.00;;;;;;;15.63;51.68;100087.09;1838775;77;28644;-61
2022/04/14 09:56:56;;;;;;;1.90;1.30;;;;;;;15.65;51.67;100098.44;1816121;79;21076;-60
2022/04/14 09:59:25;;;;;;;1.05;0.95;;;;;;;15.71;51.65;100099.83;1816224;79;21113;-60
2022/04/14 10:02:12;;;;;;;1.00;1.00;;;;;;;15.78;51.62;100094.58;1845776;77;21021;-61
2022/04/14 10:04:44;;;;;;;1.55;1.30;;;;;;;15.86;51.57;100093.61;1849451;77;21072;-62
2022/04/14 10:07:14;;;;;;;1.50;1.40;;;;;;;15.94;51.53;100097.47;1849537;77;21532;-61
2022/04/14 10:09:44;;;;;;;1.42;1.20;;;;;;;16.01;51.50;100097.02;1849434;77;21086;-61
2022/04/14 10:12:27;;;;;;;1.27;1.17;;;;;;;16.08;51.52;100089.84;1849582;77;21106;-61
2022/04/14 10:15:10;;;;;;;;;;;;;;;16.17;51.49;100096.38;1852219;77;20981;-60
2022/04/14 10:17:38;;;;;;;2.12;1.07;;;;;;;16.24;51.43;100100.76;1831388;77;20087;-61
2022/04/14 10:20:09;;;;;;;1.10;1.00;;;;;;;16.33;51.34;100084.54;1824044;78;20997;-61
2022/04/14 10:22:39;;;;;;;1.35;1.15;;;;;;;16.41;51.27;100088.39;1823778;78;21493;-60
2022/04/14 10:25:08;;;;;;;0.93;0.90;;;;;;;16.49;51.21;100094.93;1857776;77;21024;-60
2022/04/14 10:27:38;;;;;;;1.20;1.10;;;;;;;16.59;51.13;100086.52;1857792;77;21025;-60
2022/04/14 10:30:06;;;;;;;1.30;1.20;;;;;;;16.66;51.09;100090.07;1857791;77;21508;-61
2022/04/14 10:32:36;;;;;;;2.27;1.40;;;;;;;16.74;51.00;100082.37;1857784;77;21016;-60
2022/04/14 10:35:04;;;;;;;1.10;1.00;;;;;;;16.83;50.91;100088.73;1855962;77;20989;-61
2022/04/14 10:37:35;;;;;;;1.02;1.00;;;;;;;16.92;50.86;100085.38;1827077;77;21141;-61
2022/04/14 10:40:03;;;;;;;0.93;0.93;;;;;;;17.00;50.80;100079.00;1846229;77;20953;-61
2022/04/14 10:42:31;;;;;;;0.90;0.90;;;;;;;17.08;50.70;100079.62;1822369;78;20997;-61
2022/04/14 10:44:58;;;;;;;1.07;1.05;;;;;;;17.18;50.65;100083.78;1824137;78;21031;-61
2022/04/14 10:47:54;;;;;;;1.22;1.00;;;;;;;17.26;50.56;100081.72;1824267;78;21063;-61
2022/04/14 10:50:32;;;;;;;1.30;1.10;;;;;;;17.35;50.50;100078.34;1824092;78;21026;-61
2022/04/14 10:53:05;;;;;;;1.07;1.07;;;;;;;17.45;50.39;100075.27;1793364;78;21072;-61
2022/04/14 10:55:37;;;;;;;1.40;1.30;;;;;;;17.54;50.28;100079.91;1795960;79;21087;-61
2022/04/14 10:58:04;;;;;;;1.40;1.30;;;;;;;17.64;50.22;100066.91;1795295;79;21017;-61
2022/04/14 11:00:35;;;;;;;1.02;1.02;;;;;;;17.74;50.14;100086.64;1796950;79;21540;-61
2022/04/14 11:03:11;;;;;;;1.20;1.10;;;;;;;17.83;50.06;100088.10;1785581;80;21109;-60
2022/04/14 11:05:47;;;;;;;0.95;0.90;;;;;;;17.93;50.02;100090.40;1755535;81;20999;-62
2022/04/14 11:08:27;;;;;;;1.20;1.10;;;;;;;18.01;50.04;100091.00;1778011;79;21561;-61
2022/04/14 11:11:13;;;;;;;1.20;1.10;;;;;;;18.11;50.15;100084.37;1804104;79;21008;-61
2022/04/14 11:13:58;;;;;;;1.22;1.12;;;;;;;18.22;50.20;100098.00;1804099;79;21001;-61
2022/04/14 11:16:46;;;;;;;1.12;1.00;;;;;;;18.32;50.14;100089.50;1803776;79;21224;-61
2022/04/14 11:19:28;;;;;;;1.22;1.12;;;;;;;18.42;50.12;100083.69;1803966;79;20975;-61
2022/04/14 11:22:08;;;;;;;0.90;0.90;;;;;;;18.53;49.87;100074.96;1803811;79;21045;-61
2022/04/14 11:24:40;;;;;;;1.07;1.07;;;;;;;18.63;49.82;100076.67;1804313;79;21048;-61
2022/04/14 11:27:12;;;;;;;1.12;1.02;;;;;;;18.75;49.69;100076.02;1803824;79;21048;-61
2022/04/14 11:29:41;;;;;;;0.95;0.95;;;;;;;18.84;49.57;100070.20;1804029;79;22193;-61
2022/04/14 11:32:07;;;;;;;1.32;1.10;;;;;;;18.96;49.54;100069.53;1803922;79;21084;-62
2022/04/14 11:34:37;;;;;;;1.02;1.00;;;;;;;19.07;49.38;100068.04;1804170;79;21187;-62
2022/04/14 11:37:05;;;;;;;1.30;1.20;;;;;;;19.18;49.24;100070.02;1804127;79;21184;-61
2022/04/14 11:39:33;;;;;;;1.20;1.10;;;;;;;19.30;49.13;100076.39;1778178;79;21122;-63
2022/04/14 11:42:08;;;;;;;1.20;1.10;;;;;;;19.41;48.98;100073.00;1803794;79;21442;-62